createdAt,value
2017-09-15T00:01:08.603Z,91.77
2017-09-15T00:03:37.614Z,92.53
2017-09-15T00:06:06.926Z,90.60
2017-09-15T00:08:36.021Z,89.40
2017-09-15T00:11:07.792Z,88.10
2017-09-15T00:13:36.889Z,93.20
2017-09-15T00:16:06.482Z,94.47
2017-09-15T00:18:35.079Z,91.43
2017-09-15T00:21:04.577Z,94.87
2017-09-15T00:23:34.486Z,95.13
2017-09-15T00:26:03.379Z,92.93
2017-09-15T00:28:33.892Z,95.53
2017-09-15T00:31:05.015Z,99.33
2017-09-15T00:33:35.107Z,95.60
2017-09-15T00:36:05.326Z,91.90
2017-09-15T00:38:34.899Z,90.83
2017-09-15T00:41:04.646Z,90.77
2017-09-15T00:43:34.618Z,91.63
2017-09-15T00:46:04.743Z,90.63
2017-09-15T00:48:35.155Z,95.07
2017-09-15T00:51:04.414Z,94.77
2017-09-15T00:53:33.818Z,91.50
2017-09-15T00:56:03.218Z,104.80
2017-09-15T00:58:32.352Z,93.93
2017-09-15T01:01:03.025Z,97.10
2017-09-15T01:03:33.359Z,93.60
2017-09-15T01:06:02.515Z,93.53
2017-09-15T01:08:32.510Z,98.27
2017-09-15T01:11:00.985Z,98.10
2017-09-15T01:13:30.150Z,94.30
2017-09-15T01:15:58.671Z,98.30
2017-09-15T01:18:29.666Z,95.40
2017-09-15T01:20:59.174Z,96.83
2017-09-15T01:23:30.426Z,94.00
2017-09-15T01:25:59.562Z,96.03
2017-09-15T01:28:30.173Z,91.03
2017-09-15T01:30:58.582Z,90.57
2017-09-15T01:33:28.243Z,93.40
2017-09-15T01:35:58.238Z,88.07
2017-09-15T01:38:27.746Z,86.33
2017-09-15T01:40:58.738Z,89.23
2017-09-15T01:43:27.802Z,87.13
2017-09-15T01:45:56.661Z,99.50
2017-09-15T01:48:26.450Z,90.93
2017-09-15T01:50:55.133Z,87.10
2017-09-15T01:53:24.187Z,93.03
2017-09-15T01:55:55.382Z,90.87
2017-09-15T01:58:25.198Z,89.17
2017-09-15T02:00:56.506Z,88.80
2017-09-15T02:03:26.354Z,96.90
2017-09-15T02:05:55.763Z,92.97
2017-09-15T02:08:26.869Z,94.50
2017-09-15T02:10:56.899Z,94.33
2017-09-15T02:13:25.806Z,91.83
2017-09-15T02:15:56.034Z,92.50
2017-09-15T02:18:25.396Z,90.47
2017-09-15T02:20:55.558Z,92.83
2017-09-15T02:23:25.002Z,95.73
2017-09-15T02:25:54.625Z,94.57
2017-09-15T02:28:24.298Z,90.83
2017-09-15T02:30:55.642Z,95.13
2017-09-15T02:33:25.890Z,88.87
2017-09-15T02:35:56.107Z,96.60
2017-09-15T02:38:25.326Z,95.40
2017-09-15T02:40:57.347Z,95.40
2017-09-15T02:43:27.147Z,95.53
2017-09-15T02:45:56.780Z,89.87
2017-09-15T02:48:27.367Z,90.73
2017-09-15T02:50:57.046Z,89.40
2017-09-15T02:53:27.741Z,92.67
2017-09-15T02:55:58.127Z,90.03
2017-09-15T02:58:29.435Z,95.07
2017-09-15T03:00:58.579Z,101.93
2017-09-15T03:03:29.848Z,100.23
2017-09-15T03:05:59.959Z,88.00
2017-09-15T03:08:29.007Z,92.40
2017-09-15T03:11:00.473Z,91.73
2017-09-15T03:13:29.508Z,87.73
2017-09-15T03:15:58.690Z,98.90
2017-09-15T03:18:27.790Z,84.40
2017-09-15T03:20:56.887Z,84.37
2017-09-15T03:23:24.926Z,80.13
2017-09-15T03:25:53.070Z,83.03
2017-09-15T03:28:21.577Z,84.97
2017-09-15T03:30:49.608Z,85.17
2017-09-15T03:33:18.416Z,81.33
2017-09-15T03:35:47.033Z,80.53
2017-09-15T03:38:15.647Z,78.37
2017-09-15T03:40:45.095Z,77.30
2017-09-15T03:43:13.124Z,77.40
2017-09-15T03:45:42.630Z,79.63
2017-09-15T03:48:12.183Z,74.20
2017-09-15T03:50:40.862Z,69.27
2017-09-15T03:53:08.908Z,63.77
2017-09-15T03:55:37.730Z,77.70
2017-09-15T03:58:06.415Z,60.67
2017-09-15T04:00:35.089Z,63.90
2017-09-15T04:03:03.647Z,65.30
2017-09-15T04:05:32.174Z,61.20
2017-09-15T04:08:00.814Z,65.67
2017-09-15T04:10:30.570Z,64.10
2017-09-15T04:12:58.634Z,56.70
2017-09-15T04:15:27.154Z,48.87
2017-09-15T04:17:55.811Z,51.77
2017-09-15T04:20:24.500Z,44.07
2017-09-15T04:22:53.531Z,45.90
2017-09-15T04:25:22.895Z,45.30
2017-09-15T04:27:51.478Z,48.57
2017-09-15T04:30:19.499Z,43.33
2017-09-15T04:32:48.820Z,45.00
2017-09-15T04:35:17.338Z,49.23
2017-09-15T04:37:45.851Z,56.10
2017-09-15T04:40:14.750Z,51.20
2017-09-15T04:42:44.571Z,49.37
2017-09-15T04:45:13.144Z,45.93
2017-09-15T04:47:41.968Z,43.93
2017-09-15T04:50:10.375Z,38.73
2017-09-15T04:52:38.871Z,36.90
2017-09-15T04:55:07.782Z,37.77
2017-09-15T04:57:36.610Z,43.33
2017-09-15T05:00:05.885Z,36.43
2017-09-15T05:02:34.802Z,53.63
2017-09-15T05:05:03.944Z,37.30
2017-09-15T05:07:32.690Z,40.97
2017-09-15T05:10:01.282Z,39.70
2017-09-15T05:12:29.324Z,42.63
2017-09-15T05:14:58.798Z,47.27
2017-09-15T05:17:27.619Z,44.40
2017-09-15T05:19:56.419Z,39.60
2017-09-15T05:22:25.679Z,41.30
2017-09-15T05:24:55.007Z,22.67
2017-09-15T05:27:23.588Z,47.73
2017-09-15T05:29:52.415Z,39.40
2017-09-15T05:32:21.412Z,43.13
2017-09-15T05:34:50.224Z,43.70
2017-09-15T05:37:18.650Z,49.70
2017-09-15T05:39:47.401Z,35.77
2017-09-15T05:42:16.422Z,48.33
2017-09-15T05:44:45.116Z,49.60
2017-09-15T05:47:13.789Z,62.63
2017-09-15T05:49:42.368Z,79.80
2017-09-15T05:52:10.833Z,55.08
2017-09-15T05:54:39.495Z,71.47
2017-09-15T05:57:08.011Z,60.67
2017-09-15T05:59:36.701Z,73.03
2017-09-15T06:02:04.842Z,74.00
2017-09-15T06:04:33.362Z,76.93
2017-09-15T06:07:02.032Z,59.83
2017-09-15T06:09:30.696Z,61.47
2017-09-15T06:11:59.226Z,78.43
2017-09-15T06:14:27.760Z,67.53
2017-09-15T06:16:57.134Z,79.57
2017-09-15T06:19:25.886Z,64.30
2017-09-15T06:21:53.939Z,80.80
2017-09-15T06:24:22.782Z,85.70
2017-09-15T06:26:51.774Z,73.27
2017-09-15T06:29:20.500Z,91.20
2017-09-15T06:31:49.086Z,76.17
2017-09-15T06:34:17.607Z,61.73
2017-09-15T06:36:46.218Z,69.50
2017-09-15T06:39:14.938Z,57.60
2017-09-15T06:41:43.758Z,65.40
2017-09-15T06:44:12.246Z,60.70
2017-09-15T06:46:40.945Z,45.30
2017-09-15T06:49:09.586Z,55.60
2017-09-15T06:51:39.006Z,53.10
2017-09-15T06:54:07.246Z,60.13
2017-09-15T06:56:35.294Z,56.47
2017-09-15T06:59:03.951Z,62.40
2017-09-15T07:01:32.684Z,61.43
2017-09-15T07:04:00.783Z,62.23
2017-09-15T07:06:29.575Z,71.87
2017-09-15T07:08:58.445Z,53.07
2017-09-15T07:11:27.238Z,41.77
2017-09-15T07:13:56.293Z,41.77
2017-09-15T07:16:25.542Z,62.70
2017-09-15T07:18:54.783Z,46.23
2017-09-15T07:21:23.182Z,53.17
2017-09-15T07:23:51.928Z,49.43
2017-09-15T07:26:20.743Z,43.53
2017-09-15T07:28:49.283Z,49.40
2017-09-15T07:31:18.170Z,47.27
2017-09-15T07:33:47.096Z,50.73
2017-09-15T07:36:15.630Z,50.13
2017-09-15T07:38:44.507Z,64.17
2017-09-15T07:41:14.434Z,41.17
2017-09-15T07:43:43.083Z,36.47
2017-09-15T07:46:11.638Z,43.80
2017-09-15T07:48:39.671Z,40.87
2017-09-15T07:51:09.172Z,37.23
2017-09-15T07:53:39.402Z,39.13
2017-09-15T07:56:08.150Z,55.93
2017-09-15T07:58:36.836Z,42.60
2017-09-15T08:01:05.742Z,47.37
2017-09-15T08:03:33.788Z,42.03
2017-09-15T08:06:01.827Z,46.03
2017-09-15T08:08:31.452Z,32.20
2017-09-15T08:11:00.679Z,40.10
2017-09-15T08:13:29.279Z,52.03
2017-09-15T08:15:58.167Z,33.83
2017-09-15T08:18:26.854Z,37.93
2017-09-15T08:20:55.530Z,40.70
2017-09-15T08:23:23.793Z,38.83
2017-09-15T08:25:52.644Z,39.83
2017-09-15T08:28:21.946Z,35.37
2017-09-15T08:30:51.943Z,39.53
2017-09-15T08:33:19.981Z,38.57
2017-09-15T08:35:48.691Z,33.60
2017-09-15T08:38:17.578Z,39.60
2017-09-15T08:40:46.119Z,42.10
2017-09-15T08:43:14.827Z,46.97
2017-09-15T08:45:43.642Z,44.67
2017-09-15T08:48:12.125Z,36.67
2017-09-15T08:50:40.619Z,46.07
2017-09-15T08:53:09.330Z,49.73
2017-09-15T08:55:38.991Z,40.47
2017-09-15T08:58:07.527Z,53.47
2017-09-15T09:00:36.211Z,35.53
2017-09-15T09:03:04.822Z,52.03
2017-09-15T09:05:34.199Z,49.77
2017-09-15T09:08:02.958Z,37.93
2017-09-15T09:10:31.017Z,47.90
2017-09-15T09:12:59.093Z,41.20
2017-09-15T09:15:27.884Z,47.80
2017-09-15T09:17:56.384Z,49.30
2017-09-15T09:20:24.950Z,45.83
2017-09-15T09:22:53.151Z,55.30
2017-09-15T09:25:21.822Z,42.67
2017-09-15T09:27:50.599Z,46.23
2017-09-15T09:30:19.267Z,55.90
2017-09-15T09:32:47.807Z,43.97
2017-09-15T09:35:16.326Z,39.77
2017-09-15T09:37:44.930Z,48.90
2017-09-15T09:40:13.543Z,42.13
2017-09-15T09:42:42.186Z,42.50
2017-09-15T09:45:10.654Z,41.30
2017-09-15T09:47:40.072Z,34.47
2017-09-15T09:50:08.527Z,39.27
2017-09-15T09:52:37.278Z,51.47
2017-09-15T09:55:05.326Z,45.90
2017-09-15T09:57:34.854Z,43.83
2017-09-15T10:00:03.811Z,39.30
2017-09-15T10:02:32.824Z,39.80
2017-09-15T10:05:01.625Z,46.50
2017-09-15T10:07:30.208Z,34.50
2017-09-15T10:09:58.815Z,44.63
2017-09-15T10:12:28.038Z,42.87
2017-09-15T10:14:56.812Z,43.83
2017-09-15T10:17:25.369Z,43.80
2017-09-15T10:19:53.895Z,41.23
2017-09-15T10:22:22.032Z,47.07
2017-09-15T10:24:50.238Z,38.27
2017-09-15T10:27:18.292Z,42.07
2017-09-15T10:29:46.430Z,42.90
2017-09-15T10:32:14.478Z,49.17
2017-09-15T10:34:43.926Z,42.43
2017-09-15T10:37:12.050Z,37.80
2017-09-15T10:39:40.091Z,39.43
2017-09-15T10:42:08.571Z,46.47
2017-09-15T10:44:37.358Z,45.70
2017-09-15T10:47:05.720Z,42.03
2017-09-15T10:49:34.328Z,39.43
2017-09-15T10:52:03.179Z,35.63
2017-09-15T10:54:31.674Z,53.97
2017-09-15T10:57:00.282Z,49.23
2017-09-15T10:59:35.070Z,39.50
2017-09-15T11:02:04.521Z,41.27
2017-09-15T11:04:33.294Z,44.83
2017-09-15T11:07:01.951Z,56.23
2017-09-15T11:09:30.479Z,39.37
2017-09-15T11:11:59.122Z,37.47
2017-09-15T11:14:27.940Z,37.43
2017-09-15T11:16:56.410Z,48.60
2017-09-15T11:19:24.918Z,51.50
2017-09-15T11:21:53.702Z,48.77
2017-09-15T11:24:22.458Z,43.80
2017-09-15T11:26:50.914Z,43.83
2017-09-15T11:29:19.667Z,47.83
2017-09-15T11:31:48.250Z,43.87
2017-09-15T11:34:16.825Z,43.10
2017-09-15T11:36:46.650Z,47.03
2017-09-15T11:39:15.235Z,49.13
2017-09-15T11:41:44.012Z,44.00
2017-09-15T11:44:12.585Z,43.93
2017-09-15T11:46:41.094Z,46.77
2017-09-15T11:49:09.840Z,47.80
2017-09-15T11:51:39.287Z,47.30
2017-09-15T11:54:08.034Z,46.90
2017-09-15T11:56:37.378Z,46.30
2017-09-15T11:59:05.571Z,48.07
2017-09-15T12:01:34.431Z,48.37
2017-09-15T12:04:02.934Z,48.60
2017-09-15T12:06:31.499Z,51.60
2017-09-15T12:08:59.971Z,54.17
2017-09-15T12:11:28.486Z,55.97
2017-09-15T12:13:57.261Z,55.80
2017-09-15T12:16:25.943Z,55.57
2017-09-15T12:18:54.580Z,56.70
2017-09-15T12:21:25.235Z,67.17
2017-09-15T12:24:03.923Z,57.93
2017-09-15T12:26:36.038Z,58.87
2017-09-15T12:29:05.399Z,62.70
2017-09-15T12:31:34.115Z,59.07
2017-09-15T12:34:05.240Z,63.70
2017-09-15T12:36:34.605Z,63.93
2017-09-15T12:39:03.319Z,65.73
2017-09-15T12:41:33.611Z,65.20
2017-09-15T12:44:02.075Z,64.23
2017-09-15T12:46:32.485Z,65.60
2017-09-15T12:49:03.244Z,64.40
2017-09-15T12:51:31.851Z,69.33
2017-09-15T12:53:59.920Z,67.90
2017-09-15T12:56:28.195Z,66.87
2017-09-15T12:58:56.779Z,72.20
2017-09-15T13:01:25.339Z,69.53
2017-09-15T13:03:54.298Z,70.10
2017-09-15T13:06:22.870Z,73.27
2017-09-15T13:08:51.695Z,73.43
2017-09-15T13:11:21.110Z,75.23
2017-09-15T13:13:49.786Z,79.23
2017-09-15T13:16:19.050Z,80.93
2017-09-15T13:18:47.946Z,81.57
2017-09-15T13:21:16.334Z,84.63
2017-09-15T13:23:46.418Z,87.57
2017-09-15T13:26:15.238Z,86.63
2017-09-15T13:28:43.958Z,85.83
2017-09-15T13:31:12.422Z,86.10
2017-09-15T13:33:41.986Z,84.97
2017-09-15T13:36:10.530Z,89.10
2017-09-15T13:38:39.567Z,89.27
2017-09-15T13:41:08.110Z,89.10
2017-09-15T13:43:36.886Z,91.30
2017-09-15T13:46:06.217Z,90.30
2017-09-15T13:48:35.046Z,92.73
2017-09-15T13:51:03.718Z,96.43
2017-09-15T13:53:32.395Z,94.10
2017-09-15T13:56:00.523Z,90.47
2017-09-15T13:58:29.782Z,90.77
2017-09-15T14:00:58.775Z,89.40
2017-09-15T14:03:27.490Z,92.07
2017-09-15T14:05:56.209Z,91.40
2017-09-15T14:08:25.486Z,93.37
2017-09-15T14:10:54.346Z,90.83
2017-09-15T14:13:22.754Z,92.77
2017-09-15T14:15:51.235Z,93.57
2017-09-15T14:18:20.126Z,94.60
2017-09-15T14:20:49.438Z,96.63
2017-09-15T14:23:18.047Z,101.83
2017-09-15T14:25:47.526Z,98.13
2017-09-15T14:28:16.279Z,97.40
2017-09-15T14:30:44.853Z,98.93
2017-09-15T14:33:14.371Z,98.40
2017-09-15T14:35:42.958Z,98.30
2017-09-15T14:38:12.357Z,98.87
2017-09-15T14:40:41.366Z,95.10
2017-09-15T14:43:09.819Z,96.90
2017-09-15T14:45:38.214Z,96.13
2017-09-15T14:48:07.011Z,94.20
2017-09-15T14:50:35.580Z,95.63
2017-09-15T14:53:03.976Z,96.37
2017-09-15T14:55:32.658Z,96.10
2017-09-15T14:58:01.306Z,105.13
2017-09-15T15:00:30.574Z,101.37
2017-09-15T15:02:59.090Z,102.77
2017-09-15T15:05:28.543Z,102.13
2017-09-15T15:07:57.193Z,101.17
2017-09-15T15:10:25.762Z,100.70
2017-09-15T15:12:57.175Z,105.20
2017-09-15T15:15:25.833Z,100.63
2017-09-15T15:17:53.854Z,102.13
2017-09-15T15:20:23.046Z,103.37
2017-09-15T15:22:51.935Z,100.67
2017-09-15T15:25:20.319Z,104.90
2017-09-15T15:27:49.102Z,100.90
2017-09-15T15:30:17.864Z,98.00
2017-09-15T15:32:48.526Z,101.00
2017-09-15T15:35:17.111Z,102.03
2017-09-15T15:37:47.106Z,94.87
2017-09-15T15:40:15.152Z,93.17
2017-09-15T15:42:43.850Z,94.40
2017-09-15T15:45:12.610Z,100.57
2017-09-15T15:47:42.118Z,94.97
2017-09-15T15:50:11.055Z,92.17
2017-09-15T15:52:39.879Z,91.93
2017-09-15T15:55:09.306Z,94.77
2017-09-15T15:57:38.572Z,95.40
2017-09-15T16:00:07.434Z,102.37
2017-09-15T16:02:36.227Z,100.73
2017-09-15T16:05:04.946Z,97.67
2017-09-15T16:07:33.643Z,101.20
2017-09-15T16:10:02.943Z,102.50
2017-09-15T16:12:32.410Z,102.80
2017-09-15T16:15:01.058Z,98.37
2017-09-15T16:17:30.490Z,100.50
2017-09-15T16:19:59.015Z,96.13
2017-09-15T16:22:27.706Z,91.87
2017-09-15T16:24:56.319Z,94.57
2017-09-15T16:27:25.799Z,89.33
2017-09-15T16:29:54.858Z,86.53
2017-09-15T16:32:23.678Z,87.40
2017-09-15T16:34:51.718Z,82.57
2017-09-15T16:37:20.338Z,82.97
2017-09-15T16:39:54.719Z,83.60
2017-09-15T16:42:30.060Z,85.93
2017-09-15T16:45:05.379Z,81.77
2017-09-15T16:47:40.698Z,82.27
2017-09-15T16:50:10.062Z,77.87
2017-09-15T16:52:38.683Z,72.47
2017-09-15T16:55:07.199Z,73.47
2017-09-15T16:57:35.746Z,77.97
2017-09-15T17:00:04.322Z,87.07
2017-09-15T17:02:33.154Z,83.53
2017-09-15T17:05:02.618Z,87.17
2017-09-15T17:07:31.794Z,91.67
2017-09-15T17:10:01.002Z,87.77
2017-09-15T17:12:29.575Z,80.93
2017-09-15T17:14:58.333Z,90.07
2017-09-15T17:17:26.838Z,86.10
2017-09-15T17:19:55.334Z,90.43
2017-09-15T17:22:24.199Z,96.47
2017-09-15T17:24:53.326Z,92.40
2017-09-15T17:27:21.971Z,99.23
2017-09-15T17:29:50.008Z,96.83
2017-09-15T17:32:18.797Z,94.27
2017-09-15T17:34:47.524Z,93.37
2017-09-15T17:37:15.767Z,88.50
2017-09-15T17:39:44.427Z,90.97
2017-09-15T17:42:13.107Z,87.43
2017-09-15T17:44:41.523Z,93.90
2017-09-15T17:47:10.350Z,91.67
2017-09-15T17:49:38.971Z,92.00
2017-09-15T17:52:07.006Z,97.90
2017-09-15T17:54:35.130Z,96.43
2017-09-15T17:57:03.530Z,98.30
2017-09-15T17:59:31.562Z,96.37
2017-09-15T18:02:00.274Z,98.40
2017-09-15T18:04:28.978Z,94.23
2017-09-15T18:06:58.798Z,94.30
2017-09-15T18:09:28.513Z,93.13
2017-09-15T18:11:57.694Z,94.43
2017-09-15T18:14:25.738Z,93.20
2017-09-15T18:16:54.794Z,94.97
2017-09-15T18:19:23.555Z,94.53
2017-09-15T18:21:51.590Z,97.50
2017-09-15T18:24:20.482Z,96.13
2017-09-15T18:26:49.165Z,92.07
2017-09-15T18:29:18.330Z,91.43
2017-09-15T18:31:47.806Z,90.60
2017-09-15T18:34:15.847Z,88.10
2017-09-15T18:36:44.462Z,89.50
2017-09-15T18:39:13.326Z,85.80
2017-09-15T18:41:42.074Z,87.33
2017-09-15T18:46:50.239Z,89.00
2017-09-15T18:49:18.990Z,91.73
2017-09-15T18:51:48.258Z,89.73
2017-09-15T18:54:17.122Z,94.73
2017-09-15T18:56:46.074Z,97.73
2017-09-15T18:59:15.414Z,99.73
2017-09-15T19:01:44.271Z,94.90
2017-09-15T19:04:13.619Z,95.83
2017-09-15T19:06:42.363Z,91.77
2017-09-15T19:09:11.910Z,97.97
2017-09-15T19:11:40.726Z,95.23
2017-09-15T19:14:09.446Z,96.07
2017-09-15T19:16:38.899Z,91.00
2017-09-15T19:19:07.546Z,90.43
2017-09-15T19:21:35.574Z,87.90
2017-09-15T19:24:04.266Z,94.93
2017-09-15T19:26:33.096Z,96.67
2017-09-15T19:29:01.523Z,92.80
2017-09-15T19:31:30.231Z,91.23
2017-09-15T19:33:58.811Z,95.00
2017-09-15T19:36:27.758Z,94.90
2017-09-15T19:38:56.657Z,93.60
2017-09-15T19:41:25.178Z,90.90
2017-09-15T19:43:53.206Z,91.60
2017-09-15T19:46:21.766Z,87.67
2017-09-15T19:48:50.986Z,89.97
2017-09-15T19:51:19.594Z,85.20
2017-09-15T19:53:48.410Z,87.57
2017-09-15T19:56:16.458Z,87.57
2017-09-15T19:58:44.478Z,89.90
2017-09-15T20:01:13.930Z,85.43
2017-09-15T20:03:42.618Z,85.73
2017-09-15T20:06:11.295Z,84.80
2017-09-15T20:08:39.412Z,86.03
2017-09-15T20:11:08.066Z,86.80
2017-09-15T20:13:37.058Z,82.93
2017-09-15T20:16:06.014Z,80.23
2017-09-15T20:18:35.626Z,81.43
2017-09-15T20:21:04.393Z,85.20
2017-09-15T20:23:33.138Z,84.30
2017-09-15T20:26:01.165Z,89.43
2017-09-15T20:28:30.451Z,82.90
2017-09-15T20:30:58.786Z,82.33
2017-09-15T20:33:27.156Z,82.80
2017-09-15T20:35:55.763Z,87.63
2017-09-15T20:38:23.955Z,89.40
2017-09-15T20:40:52.510Z,90.27
2017-09-15T20:43:21.102Z,90.20
2017-09-15T20:45:50.095Z,87.20
2017-09-15T20:48:18.673Z,91.13
2017-09-15T20:50:48.086Z,87.57
2017-09-15T20:53:16.214Z,105.90
2017-09-15T20:55:44.982Z,84.67
2017-09-15T20:58:13.006Z,84.63
2017-09-15T21:00:41.153Z,91.00
2017-09-15T21:03:09.962Z,87.40
2017-09-15T21:05:37.990Z,90.53
2017-09-15T21:08:06.646Z,94.37
2017-09-15T21:10:35.321Z,83.80
2017-09-15T21:13:03.354Z,91.40
2017-09-15T21:15:33.081Z,85.43
2017-09-15T21:18:02.519Z,87.07
2017-09-15T21:20:30.986Z,90.80
2017-09-15T21:22:59.696Z,88.13
2017-09-15T21:25:28.375Z,90.43
2017-09-15T21:27:57.127Z,87.37
2017-09-15T21:30:25.611Z,91.33
2017-09-15T21:32:55.118Z,87.83
2017-09-15T21:35:24.455Z,93.70
2017-09-15T21:37:53.350Z,90.37
2017-09-15T21:40:21.386Z,90.27
2017-09-15T21:42:50.006Z,95.47
2017-09-15T21:45:18.859Z,93.23
2017-09-15T21:47:48.335Z,96.53
2017-09-15T21:50:17.054Z,93.60
2017-09-15T21:52:46.526Z,91.20
2017-09-15T21:55:15.246Z,89.83
2017-09-15T21:57:44.619Z,89.73
2017-09-15T22:00:13.479Z,93.80
2017-09-15T22:02:42.230Z,92.90
2017-09-15T22:05:11.015Z,95.17
2017-09-15T22:07:40.667Z,93.73
2017-09-15T22:10:09.418Z,91.23
2017-09-15T22:12:38.791Z,92.50
2017-09-15T22:15:07.614Z,94.27
2017-09-15T22:17:37.342Z,90.60
2017-09-15T22:20:05.950Z,91.23
2017-09-15T22:22:34.766Z,93.43
2017-09-15T22:25:03.523Z,92.90
2017-09-15T22:27:32.046Z,92.13
2017-09-15T22:30:00.802Z,90.00
2017-09-15T22:32:29.486Z,88.00
2017-09-15T22:34:58.342Z,85.20
2017-09-15T22:37:27.685Z,80.13
2017-09-15T22:39:56.333Z,82.77
2017-09-15T22:42:24.686Z,78.03
2017-09-15T22:44:53.450Z,84.03
2017-09-15T22:47:22.087Z,84.77
2017-09-15T22:49:50.110Z,84.10
2017-09-15T22:52:19.091Z,83.43
2017-09-15T22:54:47.674Z,84.23
2017-09-15T22:57:16.429Z,81.87
2017-09-15T22:59:45.015Z,81.37
2017-09-15T23:02:14.556Z,82.13
2017-09-15T23:04:43.333Z,78.53
2017-09-15T23:07:11.466Z,80.30
2017-09-15T23:09:40.854Z,80.37
2017-09-15T23:12:08.898Z,78.50
2017-09-15T23:14:37.538Z,78.97
2017-09-15T23:17:06.947Z,83.30
2017-09-15T23:19:36.595Z,80.70
2017-09-15T23:22:05.385Z,78.97
2017-09-15T23:24:34.071Z,75.63
2017-09-15T23:27:02.531Z,77.57
2017-09-15T23:29:31.242Z,76.07
2017-09-15T23:31:59.854Z,77.00
2017-09-15T23:34:28.578Z,78.40
2017-09-15T23:36:57.063Z,80.13
2017-09-15T23:39:25.518Z,79.53
2017-09-15T23:41:54.230Z,81.83
2017-09-15T23:44:23.079Z,79.60
2017-09-15T23:46:51.536Z,79.37
2017-09-15T23:49:20.131Z,83.47
2017-09-15T23:51:49.222Z,81.50
2017-09-15T23:54:17.970Z,83.23
2017-09-15T23:56:47.419Z,85.07
2017-09-15T23:59:16.202Z,82.27
